Latest Weather Observations for Mount Boyce

IDN60901

Issued at 7:11 am EST Thursday 23 May 2024 (issued every 10 minutes, with the page automatically refreshed every 10 minutes)

About weather observations | Map of Sydney area stations | Latest observations for Sydney area | Other Formats
Station Details ID: 063292 Name: MOUNT BOYCE AWS Lat: -33.62 Lon: 150.27 Height: 1080.0 m
Data from the previous 72 hours. | See also: Recent months at Mount Boyce
Date/Time
EST
Temp
°C
App
Temp
°C
Dew
Point
°C
Rel
Hum
%
Delta-T
°C
Wind Press
QNH
hPa
Press
MSL
hPa
Rain since
9am
mm
Dir  Spd
km/h
Gust
km/h
Spd
kts
Gust
kts
23/07:00am 4.3 2.8 2.8 90 0.7 CALM 0 0 0 0 - - 0.0
23/06:30am 4.3 1.6 2.8 90 0.7 SSW 6 7 3 4 - - 0.0
23/06:00am 4.5 2.3 3.2 91 0.6 SSW 4 9 2 5 - - 0.0
23/05:30am 4.7 1.9 3.4 91 0.6 WSW 7 7 4 4 - - 0.0
23/05:00am 4.7 2.2 3.5 92 0.5 WSW 6 6 3 3 - - 0.0
23/04:30am 5.0 2.7 4.9 99 0.0 WSW 6 7 3 4 - - 0.0
23/04:00am 5.0 2.5 4.9 99 0.0 W 7 9 4 5 - - 0.0
23/03:30am 5.2 2.7 4.9 98 0.1 W 7 7 4 4 - - 0.0
23/03:00am 5.2 2.9 4.9 98 0.1 W 6 7 3 4 - - 0.0
23/02:30am 5.4 2.9 4.7 95 0.3 SW 7 9 4 5 - - 0.0
23/02:00am 5.4 3.2 5.3 99 0.0 WSW 6 7 3 4 - - 0.0
23/01:30am 5.3 2.9 5.2 99 0.0 WSW 7 9 4 5 - - 0.0
23/01:00am 5.2 4.1 5.1 99 0.0 CALM 0 0 0 0 - - 0.0
23/12:30am 5.1 3.9 4.7 97 0.2 CALM 0 0 0 0 - - 0.0
23/12:00am 5.3 4.1 4.6 95 0.3 CALM 0 0 0 0 - - 0.0
 
Date/Time
EST
Temp
°C
App
Temp
°C
Dew
Point
°C
Rel
Hum
%
Delta-T
°C
Wind Press
QNH
hPa
Press
MSL
hPa
Rain since
9am
mm
Dir  Spd
km/h
Gust
km/h
Spd
kts
Gust
kts
22/11:30pm 5.5 4.3 4.6 94 0.4 CALM 0 0 0 0 - - 0.0
22/11:00pm 5.4 4.2 4.8 96 0.3 CALM 0 0 0 0 - - 0.0
22/10:30pm 5.5 4.4 5.1 97 0.2 CALM 0 0 0 0 - - 0.0
22/10:00pm 5.4 4.2 4.4 93 0.5 CALM 0 0 0 0 - - 0.0
22/09:30pm 5.9 4.8 5.0 94 0.4 CALM 0 0 0 0 - - 0.0
22/09:00pm 6.1 4.9 4.4 89 0.8 CALM 0 0 0 0 - - 0.0
22/08:30pm 6.3 3.9 4.5 88 0.8 SE 6 7 3 4 - - 0.0
22/08:00pm 6.7 4.9 5.2 90 0.7 ENE 4 6 2 3 - - 0.0
22/07:30pm 6.5 4.1 5.3 92 0.6 ENE 7 9 4 5 - - 0.0
22/07:00pm 6.3 4.0 4.9 91 0.7 ENE 6 7 3 4 - - 0.0
22/06:30pm 6.5 4.0 5.0 90 0.7 ENE 7 9 4 5 - - 0.0
22/06:00pm 7.3 4.9 5.3 87 0.9 NE 7 11 4 6 - - 0.0
22/05:30pm 7.4 5.0 5.4 87 1.0 NE 7 9 4 5 - - 0.0
22/05:00pm 8.4 6.0 5.2 80 1.5 ENE 7 9 4 5 - - 0.0
22/04:30pm 10.1 7.7 4.3 67 2.8 W 6 9 3 5 - - 0.0
22/04:00pm 10.7 8.5 3.3 60 3.4 WNW 4 7 2 4 - - 0.0
22/03:30pm 11.5 9.0 3.5 58 3.8 SW 6 9 3 5 - - 0.0
22/03:00pm 11.7 9.0 3.5 57 3.9 NW 7 13 4 7 - - 0.0
22/02:30pm 11.3 8.4 4.5 63 3.3 W 9 13 5 7 - - 0.0
22/02:00pm 11.5 8.6 4.7 63 3.3 NW 9 15 5 8 - - 0.0
22/01:30pm 10.2 6.8 3.9 65 3.0 W 11 19 6 10 - - 0.0
22/01:00pm 10.9 7.3 5.0 67 2.9 WSW 13 19 7 10 - - 0.0
22/12:30pm 10.1 6.2 5.5 73 2.2 W 15 20 8 11 - - 0.0
22/12:00pm 8.6 5.0 5.0 78 1.7 W 13 19 7 10 - - 0.0
22/11:30am 8.4 4.9 5.3 81 1.5 W 13 17 7 9 - - 0.0
22/11:00am 7.4 4.2 5.0 85 1.1 W 11 17 6 9 - - 0.0
22/10:50am 7.2 3.7 5.5 89 0.8 WSW 13 19 7 10 - - 0.0
22/10:30am 5.8 2.6 5.2 96 0.3 W 11 15 6 8 - - 0.0
22/10:12am 5.9 3.1 5.2 95 0.3 W 9 15 5 8 - - 0.0
22/10:00am 6.0 3.2 5.3 95 0.3 W 9 13 5 7 - - 0.0
22/09:30am 6.1 3.9 6.0 99 0.0 WSW 7 9 4 5 - - 0.0
22/09:22am 6.2 4.2 6.1 99 0.0 WSW 6 9 3 5 - - 0.0
22/09:02am 5.3 3.8 5.2 99 0.0 SW 2 9 1 5 - - 0.0
22/09:00am 5.3 3.8 5.2 99 0.0 SW 2 9 1 5 - - 0.2
22/08:30am 4.6 2.2 4.5 99 0.0 WSW 6 7 3 4 - - 0.2
22/08:00am 4.5 2.9 4.4 99 0.0 WSW 2 7 1 4 - - 0.2
22/07:30am 3.8 2.4 3.7 99 0.0 CALM 0 6 0 3 - - 0.2
22/07:00am 3.9 1.4 3.8 99 0.0 WSW 6 7 3 4 - - 0.2
22/06:30am 3.6 2.2 3.5 99 0.0 CALM 0 0 0 0 - - 0.2
22/06:25am 3.4 1.9 3.1 98 0.1 CALM 0 0 0 0 - - 0.2
22/06:19am 3.6 2.2 3.5 99 0.0 CALM 0 0 0 0 - - 0.2
22/06:00am 4.0 2.7 3.9 99 0.0 CALM 0 0 0 0 - - 0.2
22/05:48am 3.9 2.5 3.6 98 0.1 CALM 0 0 0 0 - - 0.2
22/05:30am 4.2 2.1 3.9 98 0.1 SSW 4 6 2 3 - - 0.2
22/05:00am 4.5 2.1 4.2 98 0.1 S 6 7 3 4 - - 0.2
22/04:30am 4.4 2.0 4.3 99 0.0 S 6 7 3 4 - - 0.2
22/04:00am 4.5 2.1 4.4 99 0.0 S 6 7 3 4 - - 0.2
22/03:30am 4.6 2.6 4.3 98 0.1 SSW 4 7 2 4 - - 0.2
22/03:18am 4.6 3.3 4.3 98 0.1 CALM 0 0 0 0 - - 0.2
22/03:03am 4.4 3.1 4.0 97 0.2 CALM 0 0 0 0 - - 0.2
22/03:00am 4.5 3.2 4.1 97 0.2 CALM 0 0 0 0 - - 0.2
22/02:54am 4.5 2.8 4.1 97 0.2 WSW 2 6 1 3 - - 0.2
22/02:49am 4.7 2.7 4.3 97 0.2 WSW 4 6 2 3 - - 0.2
22/02:30am 4.5 2.0 3.6 94 0.4 WSW 6 6 3 3 - - 0.2
22/02:00am 4.8 3.4 3.6 92 0.5 CALM 0 7 0 4 - - 0.2
22/01:30am 5.1 3.6 3.1 87 0.9 CALM 0 0 0 0 - - 0.2
22/01:00am 5.3 3.8 3.2 86 0.9 CALM 0 0 0 0 - - 0.2
22/12:30am 5.9 4.5 3.4 84 1.1 CALM 0 0 0 0 - - 0.2
22/12:00am 6.0 3.9 4.0 87 0.9 SSW 4 7 2 4 - - 0.2
 
Date/Time
EST
Temp
°C
App
Temp
°C
Dew
Point
°C
Rel
Hum
%
Delta-T
°C
Wind Press
QNH
hPa
Press
MSL
hPa
Rain since
9am
mm
Dir  Spd
km/h
Gust
km/h
Spd
kts
Gust
kts
21/11:30pm 5.8 4.5 4.1 89 0.8 CALM 0 2 0 1 - - 0.2
21/11:00pm 5.9 4.1 3.7 86 1.0 SE 2 9 1 5 - - 0.2
21/10:30pm 6.4 3.9 4.6 88 0.8 SE 7 13 4 7 - - 0.2
21/10:00pm 6.2 3.9 5.5 95 0.3 ESE 7 15 4 8 - - 0.2
21/09:30pm 5.9 3.4 4.9 93 0.5 E 7 11 4 6 - - 0.2
21/09:01pm 6.7 4.4 5.5 92 0.6 ENE 7 13 4 7 - - 0.2
21/09:00pm 6.7 4.4 5.7 93 0.5 ENE 7 13 4 7 - - 0.2
21/08:30pm 7.4 5.2 6.2 92 0.6 E 7 13 4 7 - - 0.2
21/08:00pm 7.6 5.4 6.4 92 0.6 ENE 7 9 4 5 - - 0.2
21/07:30pm 7.9 5.8 6.7 92 0.6 ENE 7 11 4 6 - - 0.2
21/07:00pm 8.0 5.6 6.8 92 0.6 ENE 9 13 5 7 - - 0.2
21/06:30pm 7.8 5.2 6.3 90 0.7 ENE 9 13 5 7 - - 0.2
21/06:26pm 7.8 5.2 6.1 89 0.8 ENE 9 11 5 6 - - 0.2
21/06:00pm 7.9 5.6 5.5 85 1.1 ENE 7 13 4 7 - - 0.2
21/05:30pm 7.9 5.4 5.0 82 1.4 ENE 7 11 4 6 - - 0.2
21/05:00pm 8.9 6.1 5.3 78 1.7 E 9 15 5 8 - - 0.2
21/04:30pm 10.5 8.4 5.7 72 2.4 E 6 13 3 7 - - 0.2
21/04:00pm 11.9 9.6 5.5 65 3.2 ENE 7 11 4 6 - - 0.2
21/03:30pm 13.6 11.4 5.5 58 4.0 ENE 6 11 3 6 - - 0.2
21/03:00pm 13.6 11.5 6.0 60 3.8 ENE 6 15 3 8 - - 0.2
21/02:30pm 12.9 10.6 5.6 61 3.6 ENE 7 13 4 7 - - 0.2
21/02:00pm 12.5 10.0 3.7 55 4.2 SW 6 11 3 6 - - 0.2
21/01:30pm 12.4 9.9 3.6 55 4.2 S 6 11 3 6 - - 0.2
21/01:00pm 13.2 10.4 3.3 51 4.7 E 7 19 4 10 - - 0.2
21/12:30pm 13.4 11.0 5.3 58 4.0 SE 7 13 4 7 - - 0.0
21/12:00pm 12.5 10.2 4.7 59 3.8 SE 6 13 3 7 - - 0.0
21/11:30am 11.8 9.4 5.4 65 3.1 SSW 7 13 4 7 - - 0.0
21/11:00am 10.2 7.3 4.8 69 2.6 SSW 9 15 5 8 - - 0.0
21/10:30am 9.1 6.2 4.7 74 2.1 SSW 9 15 5 8 - - 0.0
21/10:00am 7.9 4.9 3.9 76 1.8 SSW 9 17 5 9 - - 0.0
21/09:30am 7.2 3.8 4.0 80 1.5 SSW 11 19 6 10 - - 0.0
21/09:00am 6.5 3.5 4.0 84 1.1 SSW 9 13 5 7 - - 0.0
21/08:30am 6.3 3.0 4.5 88 0.8 SSW 11 17 6 9 - - 0.0
21/08:00am 5.2 1.0 4.0 92 0.5 S 15 20 8 11 - - 0.0
21/07:30am 4.9 1.1 3.9 93 0.4 SSW 13 19 7 10 - - 0.0
21/07:00am 4.6 1.5 3.6 93 0.4 SSW 9 15 5 8 - - 0.0
21/06:30am 4.7 1.2 3.7 93 0.4 S 11 19 6 10 - - 0.0
21/06:00am 4.6 1.5 3.6 93 0.4 SW 9 17 5 9 - - 0.0
21/05:30am 4.8 1.0 3.8 93 0.4 SSW 13 24 7 13 - - 0.0
21/05:00am 4.4 0.9 3.5 94 0.4 SW 11 19 6 10 - - 0.0
21/04:30am 4.8 0.9 3.6 92 0.5 SSW 13 20 7 11 - - 0.0
21/04:00am 5.0 0.8 3.7 91 0.6 SSW 15 24 8 13 - - 0.0
21/03:30am 5.0 1.1 3.3 89 0.8 SSW 13 20 7 11 - - 0.0
21/03:00am 4.8 0.9 3.3 90 0.7 SW 13 20 7 11 - - 0.0
21/02:30am 4.6 0.6 2.9 89 0.7 SW 13 20 7 11 - - 0.0
21/02:00am 4.7 1.1 2.9 88 0.8 SW 11 15 6 8 - - 0.0
21/01:30am 5.1 1.5 3.1 87 0.9 SSW 11 19 6 10 - - 0.0
21/01:00am 4.9 0.9 2.8 86 0.9 SW 13 19 7 10 - - 0.0
21/12:30am 4.5 0.5 2.7 88 0.8 WSW 13 19 7 10 - - 0.0
21/12:00am 5.0 0.6 2.9 86 0.9 WSW 15 20 8 11 - - 0.0
 
Date/Time
EST
Temp
°C
App
Temp
°C
Dew
Point
°C
Rel
Hum
%
Delta-T
°C
Wind Press
QNH
hPa
Press
MSL
hPa
Rain since
9am
mm
Dir  Spd
km/h
Gust
km/h
Spd
kts
Gust
kts
20/11:30pm 4.8 1.2 2.7 86 0.9 WSW 11 17 6 9 - - 0.0
20/11:00pm 5.5 1.5 2.7 82 1.2 SW 13 19 7 10 - - 0.0
20/10:30pm 5.7 1.7 2.9 82 1.2 SW 13 20 7 11 - - 0.0
20/10:00pm 5.6 1.7 3.3 85 1.0 SW 13 19 7 10 - - 0.0
20/09:30pm 5.9 2.0 3.2 83 1.2 SW 13 20 7 11 - - 0.0
20/09:00pm 5.9 2.4 3.6 85 1.0 SW 11 17 6 9 - - 0.0
20/08:30pm 6.2 2.7 3.7 84 1.1 SW 11 19 6 10 - - 0.0
20/08:00pm 6.0 2.6 3.8 86 1.0 S 11 19 6 10 - - 0.0
20/07:30pm 6.1 3.6 3.9 86 1.0 SSW 6 11 3 6 - - 0.0
20/07:00pm 6.5 3.9 4.2 85 1.1 S 7 13 4 7 - - 0.0
20/06:30pm 7.3 4.9 4.4 82 1.3 S 6 13 3 7 - - 0.0
20/06:00pm 7.6 5.2 4.4 80 1.5 SSW 6 11 3 6 - - 0.0
20/05:30pm 8.0 5.1 4.6 79 1.6 SSE 9 17 5 9 - - 0.0
20/05:00pm 8.0 5.1 4.4 78 1.7 SSE 9 15 5 8 - - 0.0
20/04:30pm 8.6 6.2 4.4 75 2.0 S 6 9 3 5 - - 0.0
20/04:00pm 9.1 6.7 4.3 72 2.3 S 6 9 3 5 - - 0.0
20/03:30pm 9.3 7.2 4.1 70 2.4 SE 4 13 2 7 - - 0.0
20/03:00pm 10.0 7.9 4.0 66 2.8 ESE 4 9 2 5 - - 0.0
20/02:30pm 9.8 7.2 3.3 64 3.0 ESE 6 13 3 7 - - 0.0
20/02:00pm 10.7 8.7 4.2 64 3.1 SE 4 11 2 6 - - 0.0
20/01:30pm 10.4 7.9 3.7 63 3.1 SW 6 9 3 5 - - 0.0
20/01:00pm 10.8 7.6 3.1 59 3.6 SE 9 19 5 10 - - 0.0
20/12:30pm 11.6 8.7 2.6 54 4.2 SE 7 15 4 8 - - 0.0
20/12:00pm 11.8 9.2 3.1 55 4.1 S 6 11 3 6 - - 0.0
20/11:30am 10.4 7.6 3.0 60 3.4 SSE 7 13 4 7 - - 0.0
20/11:00am 9.3 5.9 1.7 59 3.4 SSW 9 13 5 7 - - 0.0
20/10:30am 8.6 4.6 0.6 57 3.4 SSW 11 17 6 9 - - 0.0
20/10:00am 7.8 4.2 0.8 61 3.0 SSW 9 17 5 9 - - 0.0
20/09:30am 6.6 2.5 -0.1 62 2.8 SSW 11 17 6 9 - - 0.0
20/09:00am 5.9 2.1 -0.4 64 2.6 SW 9 15 5 8 - - 0.0
20/08:30am 4.6 1.1 -1.0 67 2.2 WSW 7 11 4 6 - - 0.0
20/08:00am 3.4 -0.5 -1.5 70 1.9 WSW 9 9 5 5 - - 0.0
20/07:30am 3.2 -0.7 -1.5 71 1.8 SW 9 11 5 6 - - 0.0

Latest Capital City Observations: Canberra | Sydney | Melbourne | Brisbane | Adelaide | Perth | Hobart | Darwin

Other formats

Comma delimited format used in spreadsheet applications
http://www.bom.gov.au/fwo/IDN60901/IDN60901.94743.axf

JavaScript Object Notation format (JSON) in row-major order
http://www.bom.gov.au/fwo/IDN60901/IDN60901.94743.json

Data quality

Most of these data are generated automatically and are frequently updated. Quality checks on data are not normally performed. It is possible for incorrect values to appear. Refer to information at About Latest Weather Observations and please check the disclaimer before using these data.